Terminal Aerodrome Forecast
Issued by NWS

Home | Current Version | Previous Version | Text Only | Print | Product List | Glossary On
Versions: 1 2 3 4 5 6 7 8 9 10 11 12 13 14 15 16 17 18 19 20 21 22 23 24 25 26 27 28
000
FTUS42 KCAE 260244 AAA
TAFDNL
TAF AMD
KDNL 260244Z 2603/2624 14006KT P6SM BKN250
     FM260600 13006KT P6SM OVC020
     FM261100 13003KT 4SM BR OVC007
     FM261400 15005KT P6SM OVC015
     FM261600 18008KT P6SM BKN040=

USA.gov is the U.S. government's official web portal to all federal, state and local government web resources and services.